sensor_id;sensor_type;location;lat;lon;timestamp;pressure;altitude;pressure_sealevel;temperature;humidity
49451;BME280;35336;48.400;10.886;2023-05-23T00:00:14;95943.13;;;17.29;68.20
49451;BME280;35336;48.400;10.886;2023-05-23T00:00:30;95962.19;;;17.44;68.29
49451;BME280;35336;48.400;10.886;2023-05-23T00:00:45;95957.88;;;17.43;68.34
49451;BME280;35336;48.400;10.886;2023-05-23T00:01:00;95959.75;;;17.43;68.53
49451;BME280;35336;48.400;10.886;2023-05-23T00:01:16;95956.47;;;17.41;68.32
49451;BME280;35336;48.400;10.886;2023-05-23T00:01:31;95957.94;;;17.49;68.36
49451;BME280;35336;48.400;10.886;2023-05-23T00:01:46;95962.75;;;17.46;68.11
49451;BME280;35336;48.400;10.886;2023-05-23T00:02:02;95963.81;;;17.45;68.06
49451;BME280;35336;48.400;10.886;2023-05-23T00:02:17;95973.53;;;17.46;68.22
49451;BME280;35336;48.400;10.886;2023-05-23T00:02:32;95964.38;;;17.48;68.08
49451;BME280;35336;48.400;10.886;2023-05-23T00:02:48;95968.47;;;17.50;68.36
49451;BME280;35336;48.400;10.886;2023-05-23T00:03:03;95942.38;;;17.34;68.03
49451;BME280;35336;48.400;10.886;2023-05-23T00:03:18;95963.59;;;17.47;68.10
49451;BME280;35336;48.400;10.886;2023-05-23T00:03:34;95946.16;;;17.33;68.05
49451;BME280;35336;48.400;10.886;2023-05-23T00:03:50;95954.59;;;17.41;68.03
49451;BME280;35336;48.400;10.886;2023-05-23T00:04:06;95964.38;;;17.48;68.04
49451;BME280;35336;48.400;10.886;2023-05-23T00:04:21;95968.19;;;17.52;68.21
49451;BME280;35336;48.400;10.886;2023-05-23T00:04:36;95966.34;;;17.52;68.25
49451;BME280;35336;48.400;10.886;2023-05-23T00:04:51;95959.00;;;17.48;68.04
49451;BME280;35336;48.400;10.886;2023-05-23T00:05:07;95959.00;;;17.48;67.99
49451;BME280;35336;48.400;10.886;2023-05-23T00:05:22;95970.09;;;17.51;68.10
49451;BME280;35336;48.400;10.886;2023-05-23T00:05:38;95961.63;;;17.42;68.15
49451;BME280;35336;48.400;10.886;2023-05-23T00:05:53;95959.25;;;17.46;68.02
49451;BME280;35336;48.400;10.886;2023-05-23T00:06:09;95966.34;;;17.52;68.14
49451;BME280;35336;48.400;10.886;2023-05-23T00:06:24;95965.50;;;17.52;68.29
49451;BME280;35336;48.400;10.886;2023-05-23T00:06:39;95963.91;;;17.51;67.96
49451;BME280;35336;48.400;10.886;2023-05-23T00:06:54;95963.63;;;17.52;67.96
49451;BME280;35336;48.400;10.886;2023-05-23T00:07:10;95970.91;;;17.52;67.85
49451;BME280;35336;48.400;10.886;2023-05-23T00:07:25;95969.84;;;17.53;68.04
49451;BME280;35336;48.400;10.886;2023-05-23T00:07:40;95968.19;;;17.52;68.08
49451;BME280;35336;48.400;10.886;2023-05-23T00:07:55;95970.66;;;17.53;68.01
49451;BME280;35336;48.400;10.886;2023-05-23T00:08:11;95963.63;;;17.52;68.03
49451;BME280;35336;48.400;10.886;2023-05-23T00:08:26;95962.81;;;17.52;68.14
49451;BME280;35336;48.400;10.886;2023-05-23T00:08:41;95962.38;;;17.60;67.76
49451;BME280;35336;48.400;10.886;2023-05-23T00:08:57;95953.91;;;17.51;67.92
49451;BME280;35336;48.400;10.886;2023-05-23T00:09:15;95966.44;;;17.62;67.92
49451;BME280;35336;48.400;10.886;2023-05-23T00:09:31;95965.66;;;17.62;67.78
49451;BME280;35336;48.400;10.886;2023-05-23T00:09:46;95970.47;;;17.60;67.76
49451;BME280;35336;48.400;10.886;2023-05-23T00:10:02;95971.28;;;17.60;67.96
49451;BME280;35336;48.400;10.886;2023-05-23T00:10:17;95968.34;;;17.62;67.93
49451;BME280;35336;48.400;10.886;2023-05-23T00:10:32;95973.47;;;17.63;67.64
49451;BME280;35336;48.400;10.886;2023-05-23T00:10:48;95968.81;;;17.59;67.79
49451;BME280;35336;48.400;10.886;2023-05-23T00:11:03;95959.63;;;17.55;67.74
49451;BME280;35336;48.400;10.886;2023-05-23T00:11:18;95973.41;;;17.58;67.77
49451;BME280;35336;48.400;10.886;2023-05-23T00:11:34;95967.41;;;17.51;67.79
49451;BME280;35336;48.400;10.886;2023-05-23T00:11:49;95952.97;;;17.40;67.88
49451;BME280;35336;48.400;10.886;2023-05-23T00:12:04;95964.06;;;17.44;68.18
49451;BME280;35336;48.400;10.886;2023-05-23T00:12:20;95973.53;;;17.46;68.31
49451;BME280;35336;48.400;10.886;2023-05-23T00:12:35;95966.13;;;17.37;68.36
49451;BME280;35336;48.400;10.886;2023-05-23T00:12:50;95966.19;;;17.42;68.31
49451;BME280;35336;48.400;10.886;2023-05-23T00:13:06;95967.81;;;17.43;68.33
49451;BME280;35336;48.400;10.886;2023-05-23T00:13:21;95972.16;;;17.44;68.60
49451;BME280;35336;48.400;10.886;2023-05-23T00:13:36;95956.72;;;17.39;68.31
49451;BME280;35336;48.400;10.886;2023-05-23T00:13:52;95967.34;;;17.46;68.54
49451;BME280;35336;48.400;10.886;2023-05-23T00:14:08;95972.22;;;17.49;68.37
49451;BME280;35336;48.400;10.886;2023-05-23T00:14:23;95968.66;;;17.43;68.46
49451;BME280;35336;48.400;10.886;2023-05-23T00:14:39;95958.38;;;17.40;68.50
49451;BME280;35336;48.400;10.886;2023-05-23T00:14:54;95964.25;;;17.37;68.59
49451;BME280;35336;48.400;10.886;2023-05-23T00:15:10;95978.59;;;17.43;68.47
49451;BME280;35336;48.400;10.886;2023-05-23T00:15:25;95960.47;;;17.38;68.65
49451;BME280;35336;48.400;10.886;2023-05-23T00:15:41;95958.06;;;17.37;68.58
49451;BME280;35336;48.400;10.886;2023-05-23T00:15:56;95968.88;;;17.42;68.67
49451;BME280;35336;48.400;10.886;2023-05-23T00:16:12;95972.09;;;17.39;68.63
49451;BME280;35336;48.400;10.886;2023-05-23T00:16:27;95955.47;;;17.25;68.72
49451;BME280;35336;48.400;10.886;2023-05-23T00:16:44;95979.28;;;17.33;68.91
49451;BME280;35336;48.400;10.886;2023-05-23T00:16:59;95969.50;;;17.27;69.09
49451;BME280;35336;48.400;10.886;2023-05-23T00:17:15;95971.13;;;17.28;68.88
49451;BME280;35336;48.400;10.886;2023-05-23T00:17:30;95966.75;;;17.22;68.99
49451;BME280;35336;48.400;10.886;2023-05-23T00:17:45;95973.75;;;17.23;69.10
49451;BME280;35336;48.400;10.886;2023-05-23T00:18:00;95956.38;;;17.13;69.17
49451;BME280;35336;48.400;10.886;2023-05-23T00:18:16;95972.13;;;17.22;69.42
49451;BME280;35336;48.400;10.886;2023-05-23T00:18:31;95972.94;;;17.22;69.28
49451;BME280;35336;48.400;10.886;2023-05-23T00:18:47;95947.41;;;17.08;69.41
49451;BME280;35336;48.400;10.886;2023-05-23T00:19:02;95976.22;;;17.24;69.28
49451;BME280;35336;48.400;10.886;2023-05-23T00:19:17;95965.13;;;17.21;69.54
49451;BME280;35336;48.400;10.886;2023-05-23T00:19:33;95946.03;;;17.05;69.51
49451;BME280;35336;48.400;10.886;2023-05-23T00:19:48;95972.03;;;17.17;69.51
49451;BME280;35336;48.400;10.886;2023-05-23T00:20:05;95960.38;;;17.11;69.59
49451;BME280;35336;48.400;10.886;2023-05-23T00:20:20;95964.22;;;17.15;69.52
49451;BME280;35336;48.400;10.886;2023-05-23T00:20:37;95962.19;;;17.05;69.63
49451;BME280;35336;48.400;10.886;2023-05-23T00:20:53;95968.72;;;17.09;69.81
49451;BME280;35336;48.400;10.886;2023-05-23T00:21:08;95979.81;;;17.13;69.93
49451;BME280;35336;48.400;10.886;2023-05-23T00:21:23;95960.03;;;17.07;69.95
49451;BME280;35336;48.400;10.886;2023-05-23T00:21:39;95951.91;;;17.02;69.79
49451;BME280;35336;48.400;10.886;2023-05-23T00:21:54;95964.88;;;17.05;69.87
49451;BME280;35336;48.400;10.886;2023-05-23T00:22:11;95972.47;;;17.08;69.83
49451;BME280;35336;48.400;10.886;2023-05-23T00:22:26;95967.06;;;17.08;70.09
49451;BME280;35336;48.400;10.886;2023-05-23T00:22:41;95969.75;;;17.08;70.08
49451;BME280;35336;48.400;10.886;2023-05-23T00:22:57;95964.72;;;16.95;69.99
49451;BME280;35336;48.400;10.886;2023-05-23T00:23:12;95970.28;;;17.05;70.29
49451;BME280;35336;48.400;10.886;2023-05-23T00:23:28;95982.69;;;17.06;70.31
49451;BME280;35336;48.400;10.886;2023-05-23T00:23:43;95963.72;;;17.01;70.20
49451;BME280;35336;48.400;10.886;2023-05-23T00:23:58;95968.56;;;16.99;70.21
49451;BME280;35336;48.400;10.886;2023-05-23T00:24:14;95976.22;;;17.07;70.42
49451;BME280;35336;48.400;10.886;2023-05-23T00:24:29;95966.44;;;17.01;70.41
49451;BME280;35336;48.400;10.886;2023-05-23T00:24:44;95974.28;;;17.03;70.29
49451;BME280;35336;48.400;10.886;2023-05-23T00:25:00;95972.38;;;17.03;70.35
49451;BME280;35336;48.400;10.886;2023-05-23T00:25:15;95963.91;;;16.94;70.47
49451;BME280;35336;48.400;10.886;2023-05-23T00:25:31;95964.38;;;16.91;70.63
49451;BME280;35336;48.400;10.886;2023-05-23T00:25:46;95974.44;;;16.96;70.74
49451;BME280;35336;48.400;10.886;2023-05-23T00:26:02;95967.31;;;16.90;70.84
49451;BME280;35336;48.400;10.886;2023-05-23T00:26:17;95971.75;;;16.96;70.83
49451;BME280;35336;48.400;10.886;2023-05-23T00:26:32;95971.06;;;16.89;70.97
49451;BME280;35336;48.400;10.886;2023-05-23T00:26:48;95956.97;;;16.81;70.77
49451;BME280;35336;48.400;10.886;2023-05-23T00:27:03;95971.16;;;16.94;71.04
49451;BME280;35336;48.400;10.886;2023-05-23T00:27:19;95967.56;;;16.88;71.11
49451;BME280;35336;48.400;10.886;2023-05-23T00:27:35;95966.25;;;16.91;70.96
49451;BME280;35336;48.400;10.886;2023-05-23T00:27:50;95979.34;;;16.99;70.88
49451;BME280;35336;48.400;10.886;2023-05-23T00:28:06;95970.09;;;16.95;70.98
49451;BME280;35336;48.400;10.886;2023-05-23T00:28:21;95972.06;;;16.99;70.73
49451;BME280;35336;48.400;10.886;2023-05-23T00:28:37;95955.38;;;16.86;70.95
49451;BME280;35336;48.400;10.886;2023-05-23T00:28:52;95982.09;;;17.04;70.92
49451;BME280;35336;48.400;10.886;2023-05-23T00:29:07;95972.38;;;17.03;70.83
49451;BME280;35336;48.400;10.886;2023-05-23T00:29:22;95974.03;;;17.04;70.60
49451;BME280;35336;48.400;10.886;2023-05-23T00:29:38;95967.75;;;16.98;70.69
49451;BME280;35336;48.400;10.886;2023-05-23T00:29:53;95964.78;;;17.00;70.80
49451;BME280;35336;48.400;10.886;2023-05-23T00:30:09;95966.44;;;17.01;70.72
49451;BME280;35336;48.400;10.886;2023-05-23T00:30:24;95952.91;;;16.96;70.74
49451;BME280;35336;48.400;10.886;2023-05-23T00:30:39;95976.31;;;17.12;70.59
49451;BME280;35336;48.400;10.886;2023-05-23T00:30:55;95975.78;;;17.15;70.52
49451;BME280;35336;48.400;10.886;2023-05-23T00:31:10;95977.19;;;17.18;70.40
49451;BME280;35336;48.400;10.886;2023-05-23T00:31:25;95974.72;;;17.17;70.35
49451;BME280;35336;48.400;10.886;2023-05-23T00:31:41;95953.78;;;17.02;70.45
49451;BME280;35336;48.400;10.886;2023-05-23T00:31:57;95972.56;;;17.13;70.47
49451;BME280;35336;48.400;10.886;2023-05-23T00:32:12;95983.88;;;17.15;70.47
49451;BME280;35336;48.400;10.886;2023-05-23T00:32:27;95977.38;;;17.11;70.53
49451;BME280;35336;48.400;10.886;2023-05-23T00:32:43;95972.56;;;17.13;70.34
49451;BME280;35336;48.400;10.886;2023-05-23T00:32:58;95981.44;;;17.14;70.45
49451;BME280;35336;48.400;10.886;2023-05-23T00:33:15;95977.69;;;17.15;70.07
49451;BME280;35336;48.400;10.886;2023-05-23T00:33:31;95975.25;;;17.13;70.43
49451;BME280;35336;48.400;10.886;2023-05-23T00:33:46;95966.59;;;17.11;70.16
49451;BME280;35336;48.400;10.886;2023-05-23T00:34:01;95973.69;;;17.18;70.46
49451;BME280;35336;48.400;10.886;2023-05-23T00:34:17;95970.97;;;17.18;70.32
49451;BME280;35336;48.400;10.886;2023-05-23T00:34:32;95972.63;;;17.19;70.40
49451;BME280;35336;48.400;10.886;2023-05-23T00:34:47;95973.09;;;17.15;70.22
49451;BME280;35336;48.400;10.886;2023-05-23T00:35:03;95959.00;;;17.08;70.61
49451;BME280;35336;48.400;10.886;2023-05-23T00:35:21;95973.94;;;17.16;70.59
49451;BME280;35336;48.400;10.886;2023-05-23T00:35:37;95967.06;;;17.08;70.34
49451;BME280;35336;48.400;10.886;2023-05-23T00:35:52;95977.38;;;17.11;70.47
49451;BME280;35336;48.400;10.886;2023-05-23T00:36:07;95978.16;;;17.12;70.44
49451;BME280;35336;48.400;10.886;2023-05-23T00:36:23;95970.41;;;17.15;70.24
49451;BME280;35336;48.400;10.886;2023-05-23T00:36:38;95969.34;;;17.17;70.17
49451;BME280;35336;48.400;10.886;2023-05-23T00:36:53;95974.72;;;17.17;70.39
49451;BME280;35336;48.400;10.886;2023-05-23T00:37:09;95972.03;;;17.17;70.47
49451;BME280;35336;48.400;10.886;2023-05-23T00:37:24;95973.94;;;17.16;70.29
49451;BME280;35336;48.400;10.886;2023-05-23T00:37:39;95970.41;;;17.15;70.29
49451;BME280;35336;48.400;10.886;2023-05-23T00:37:55;95968.53;;;17.16;70.55
49451;BME280;35336;48.400;10.886;2023-05-23T00:38:10;95969.34;;;17.17;70.41
49451;BME280;35336;48.400;10.886;2023-05-23T00:38:25;95956.56;;;17.07;70.46
49451;BME280;35336;48.400;10.886;2023-05-23T00:38:40;95973.09;;;17.15;70.43
49451;BME280;35336;48.400;10.886;2023-05-23T00:38:56;95972.78;;;17.12;70.50
49451;BME280;35336;48.400;10.886;2023-05-23T00:39:11;95970.28;;;17.05;70.57
49451;BME280;35336;48.400;10.886;2023-05-23T00:39:27;95975.72;;;17.10;70.66
49451;BME280;35336;48.400;10.886;2023-05-23T00:39:42;95978.41;;;17.10;70.46
49451;BME280;35336;48.400;10.886;2023-05-23T00:39:57;95956.88;;;17.10;70.50
49451;BME280;35336;48.400;10.886;2023-05-23T00:40:12;95973.09;;;17.15;70.29
49451;BME280;35336;48.400;10.886;2023-05-23T00:40:28;95975.47;;;17.12;70.60
49451;BME280;35336;48.400;10.886;2023-05-23T00:40:43;95969.22;;;17.06;70.52
49451;BME280;35336;48.400;10.886;2023-05-23T00:40:59;95976.78;;;17.09;70.52
49451;BME280;35336;48.400;10.886;2023-05-23T00:41:14;95984.06;;;17.09;70.72
49451;BME280;35336;48.400;10.886;2023-05-23T00:41:29;95977.03;;;17.08;70.75
49451;BME280;35336;48.400;10.886;2023-05-23T00:41:49;95980.53;;;17.08;70.66
49451;BME280;35336;48.400;10.886;2023-05-23T00:42:04;95977.84;;;17.08;70.52
49451;BME280;35336;48.400;10.886;2023-05-23T00:42:20;95970.50;;;17.04;70.64
49451;BME280;35336;48.400;10.886;2023-05-23T00:42:35;95967.00;;;17.03;70.65
49451;BME280;35336;48.400;10.886;2023-05-23T00:42:51;95969.94;;;17.02;70.71
49451;BME280;35336;48.400;10.886;2023-05-23T00:43:06;95976.22;;;17.07;70.64
49451;BME280;35336;48.400;10.886;2023-05-23T00:43:21;95965.63;;;17.01;70.88
49451;BME280;35336;48.400;10.886;2023-05-23T00:43:37;95968.56;;;16.99;70.77
49451;BME280;35336;48.400;10.886;2023-05-23T00:43:52;95955.72;;;16.89;70.92
49451;BME280;35336;48.400;10.886;2023-05-23T00:44:07;95976.22;;;17.07;70.77
49451;BME280;35336;48.400;10.886;2023-05-23T00:44:22;95972.38;;;17.03;70.71
49451;BME280;35336;48.400;10.886;2023-05-23T00:44:38;95969.75;;;17.08;70.63
49451;BME280;35336;48.400;10.886;2023-05-23T00:44:53;95962.34;;;16.98;70.67
49451;BME280;35336;48.400;10.886;2023-05-23T00:45:09;95973.50;;;17.07;70.94
49451;BME280;35336;48.400;10.886;2023-05-23T00:45:24;95969.53;;;17.10;70.77
49451;BME280;35336;48.400;10.886;2023-05-23T00:45:39;95955.66;;;17.01;70.48
49451;BME280;35336;48.400;10.886;2023-05-23T00:45:55;95961.63;;;17.03;70.45
49451;BME280;35336;48.400;10.886;2023-05-23T00:46:10;95976.47;;;17.06;70.62
49451;BME280;35336;48.400;10.886;2023-05-23T00:46:26;95974.03;;;17.04;70.73
49451;BME280;35336;48.400;10.886;2023-05-23T00:46:43;95969.94;;;17.02;70.86
49451;BME280;35336;48.400;10.886;2023-05-23T00:46:59;95945.19;;;16.88;71.01
49451;BME280;35336;48.400;10.886;2023-05-23T00:47:14;95960.72;;;16.97;70.90
49451;BME280;35336;48.400;10.886;2023-05-23T00:47:29;95975.00;;;16.98;70.86
49451;BME280;35336;48.400;10.886;2023-05-23T00:47:46;95969.84;;;16.96;70.96
49451;BME280;35336;48.400;10.886;2023-05-23T00:48:03;95964.38;;;16.91;71.27
49451;BME280;35336;48.400;10.886;2023-05-23T00:48:18;95982.25;;;16.97;71.17
49451;BME280;35336;48.400;10.886;2023-05-23T00:48:34;95966.25;;;16.91;71.06
49451;BME280;35336;48.400;10.886;2023-05-23T00:48:49;95973.13;;;16.98;71.05
49451;BME280;35336;48.400;10.886;2023-05-23T00:49:05;95970.09;;;16.95;71.10
49451;BME280;35336;48.400;10.886;2023-05-23T00:49:20;95973.69;;;17.01;71.00
49451;BME280;35336;48.400;10.886;2023-05-23T00:49:36;95972.06;;;16.99;71.27
49451;BME280;35336;48.400;10.886;2023-05-23T00:49:51;95962.50;;;16.92;71.22
49451;BME280;35336;48.400;10.886;2023-05-23T00:50:09;95959.16;;;16.85;71.22
49451;BME280;35336;48.400;10.886;2023-05-23T00:50:26;95975.25;;;16.96;71.30
49451;BME280;35336;48.400;10.886;2023-05-23T00:50:42;95975.50;;;16.95;71.21
49451;BME280;35336;48.400;10.886;2023-05-23T00:50:57;95965.44;;;16.90;71.48
49451;BME280;35336;48.400;10.886;2023-05-23T00:51:13;95970.81;;;16.90;71.33
49451;BME280;35336;48.400;10.886;2023-05-23T00:51:28;95967.25;;;16.85;71.67
49451;BME280;35336;48.400;10.886;2023-05-23T00:51:44;95963.97;;;16.82;71.66
49451;BME280;35336;48.400;10.886;2023-05-23T00:51:59;95963.97;;;16.82;71.53
49451;BME280;35336;48.400;10.886;2023-05-23T00:52:15;95978.09;;;16.90;71.51
49451;BME280;35336;48.400;10.886;2023-05-23T00:52:31;95956.31;;;16.74;71.63
49451;BME280;35336;48.400;10.886;2023-05-23T00:52:48;95963.06;;;16.77;71.70
49451;BME280;35336;48.400;10.886;2023-05-23T00:53:03;95967.41;;;16.78;71.99
49451;BME280;35336;48.400;10.886;2023-05-23T00:53:20;95951.41;;;16.71;71.79
49451;BME280;35336;48.400;10.886;2023-05-23T00:53:35;95964.97;;;16.76;71.74
49451;BME280;35336;48.400;10.886;2023-05-23T00:53:51;95977.50;;;16.88;71.83
49451;BME280;35336;48.400;10.886;2023-05-23T00:54:06;95973.28;;;16.92;71.69
49451;BME280;35336;48.400;10.886;2023-05-23T00:54:29;95983.72;;;16.88;71.66
49451;BME280;35336;48.400;10.886;2023-05-23T00:54:45;95979.41;;;16.87;71.74
49451;BME280;35336;48.400;10.886;2023-05-23T00:55:00;95976.38;;;16.83;71.73
49451;BME280;35336;48.400;10.886;2023-05-23T00:55:16;95964.63;;;16.73;71.91
49451;BME280;35336;48.400;10.886;2023-05-23T00:55:31;95979.22;;;16.77;72.27
49451;BME280;35336;48.400;10.886;2023-05-23T00:55:47;95973.75;;;16.72;72.12
49451;BME280;35336;48.400;10.886;2023-05-23T00:56:02;95976.84;;;16.80;71.98
49451;BME280;35336;48.400;10.886;2023-05-23T00:56:17;95981.19;;;16.81;71.85
49451;BME280;35336;48.400;10.886;2023-05-23T00:56:33;95972.31;;;16.81;71.86
49451;BME280;35336;48.400;10.886;2023-05-23T00:56:48;95968.44;;;16.77;72.00
49451;BME280;35336;48.400;10.886;2023-05-23T00:57:04;95978.03;;;16.85;72.01
49451;BME280;35336;48.400;10.886;2023-05-23T00:57:19;95967.41;;;16.78;72.06
49451;BME280;35336;48.400;10.886;2023-05-23T00:57:36;95954.53;;;16.63;72.22
49451;BME280;35336;48.400;10.886;2023-05-23T00:57:53;95981.91;;;16.77;72.18
49451;BME280;35336;48.400;10.886;2023-05-23T00:58:09;95977.03;;;16.74;72.53
49451;BME280;35336;48.400;10.886;2023-05-23T00:58:25;95975.28;;;16.67;72.35
49451;BME280;35336;48.400;10.886;2023-05-23T00:58:40;95974.75;;;16.65;72.58
49451;BME280;35336;48.400;10.886;2023-05-23T00:58:56;95977.19;;;16.67;72.79
49451;BME280;35336;48.400;10.886;2023-05-23T00:59:12;95984.22;;;16.68;72.80
49451;BME280;35336;48.400;10.886;2023-05-23T00:59:28;95985.25;;;16.67;72.92
49451;BME280;35336;48.400;10.886;2023-05-23T00:59:44;95970.34;;;16.59;72.69
49451;BME280;35336;48.400;10.886;2023-05-23T01:00:00;95971.94;;;16.60;73.15
49451;BME280;35336;48.400;10.886;2023-05-23T01:00:16;95976.84;;;16.63;73.06
49451;BME280;35336;48.400;10.886;2023-05-23T01:00:31;95967.78;;;16.52;73.07
49451;BME280;35336;48.400;10.886;2023-05-23T01:00:46;95979.28;;;16.65;73.10
49451;BME280;35336;48.400;10.886;2023-05-23T01:01:02;95984.94;;;16.63;72.93
49451;BME280;35336;48.400;10.886;2023-05-23T01:01:17;95982.25;;;16.63;73.22
49451;BME280;35336;48.400;10.886;2023-05-23T01:01:33;95978.75;;;16.63;73.20
49451;BME280;35336;48.400;10.886;2023-05-23T01:01:49;95981.91;;;16.60;73.25
49451;BME280;35336;48.400;10.886;2023-05-23T01:02:05;95987.53;;;16.58;73.41
49451;BME280;35336;48.400;10.886;2023-05-23T01:02:20;95984.03;;;16.58;73.36
49451;BME280;35336;48.400;10.886;2023-05-23T01:02:40;95973.66;;;16.49;73.30
49451;BME280;35336;48.400;10.886;2023-05-23T01:02:57;95982.97;;;16.59;73.58
49451;BME280;35336;48.400;10.886;2023-05-23T01:03:12;95983.56;;;16.61;73.45
49451;BME280;35336;48.400;10.886;2023-05-23T01:03:27;95986.25;;;16.61;73.27
49451;BME280;35336;48.400;10.886;2023-05-23T01:03:43;95985.19;;;16.62;73.53
49451;BME280;35336;48.400;10.886;2023-05-23T01:03:58;95984.94;;;16.63;73.27
49451;BME280;35336;48.400;10.886;2023-05-23T01:04:14;95979.16;;;16.55;73.38
49451;BME280;35336;48.400;10.886;2023-05-23T01:04:29;95976.34;;;16.49;73.30
49451;BME280;35336;48.400;10.886;2023-05-23T01:04:45;95984.28;;;16.56;73.53
49451;BME280;35336;48.400;10.886;2023-05-23T01:05:02;95967.63;;;16.42;73.80
49451;BME280;35336;48.400;10.886;2023-05-23T01:05:18;95985.59;;;16.54;73.60
49451;BME280;35336;48.400;10.886;2023-05-23T01:05:34;95978.47;;;16.47;73.63
49451;BME280;35336;48.400;10.886;2023-05-23T01:05:49;95977.19;;;16.50;73.83
49451;BME280;35336;48.400;10.886;2023-05-23T01:06:05;95974.72;;;16.48;73.92
49451;BME280;35336;48.400;10.886;2023-05-23T01:06:20;95977.56;;;16.42;73.82
49451;BME280;35336;48.400;10.886;2023-05-23T01:06:35;95978.47;;;16.47;74.07
49451;BME280;35336;48.400;10.886;2023-05-23T01:06:54;95963.22;;;16.36;74.04
49451;BME280;35336;48.400;10.886;2023-05-23T01:07:10;95985.72;;;16.47;73.99
49451;BME280;35336;48.400;10.886;2023-05-23T01:07:25;95985.47;;;16.48;74.04
49451;BME280;35336;48.400;10.886;2023-05-23T01:07:40;95972.44;;;16.40;73.94
49451;BME280;35336;48.400;10.886;2023-05-23T01:07:56;95976.25;;;16.44;74.10
49451;BME280;35336;48.400;10.886;2023-05-23T01:08:11;95980.72;;;16.39;74.34
49451;BME280;35336;48.400;10.886;2023-05-23T01:08:28;95984.59;;;16.43;74.39
49451;BME280;35336;48.400;10.886;2023-05-23T01:08:43;95989.63;;;16.39;74.52
49451;BME280;35336;48.400;10.886;2023-05-23T01:08:59;95987.75;;;16.40;74.58
49451;BME280;35336;48.400;10.886;2023-05-23T01:09:15;95981.06;;;16.42;74.63
49451;BME280;35336;48.400;10.886;2023-05-23T01:09:31;95977.81;;;16.40;74.46
49451;BME280;35336;48.400;10.886;2023-05-23T01:09:47;95988.09;;;16.43;74.62
49451;BME280;35336;48.400;10.886;2023-05-23T01:10:03;95987.84;;;16.45;74.34
49451;BME280;35336;48.400;10.886;2023-05-23T01:10:20;95975.59;;;16.37;74.57
49451;BME280;35336;48.400;10.886;2023-05-23T01:10:37;95964.19;;;16.30;74.51
49451;BME280;35336;48.400;10.886;2023-05-23T01:10:53;95986.13;;;16.39;74.72
49451;BME280;35336;48.400;10.886;2023-05-23T01:11:16;95975.75;;;16.30;74.95
49451;BME280;35336;48.400;10.886;2023-05-23T01:11:41;95966.78;;;16.25;74.82
49451;BME280;35336;48.400;10.886;2023-05-23T01:12:52;95994.78;;;16.41;74.52
49451;BME280;35336;48.400;10.886;2023-05-23T01:14:11;95977.31;;;16.43;74.54
49451;BME280;35336;48.400;10.886;2023-05-23T01:14:46;95973.25;;;16.41;74.42
49451;BME280;35336;48.400;10.886;2023-05-23T01:15:08;95974.03;;;16.41;74.58
49451;BME280;35336;48.400;10.886;2023-05-23T01:16:47;95986.16;;;16.56;74.24
49451;BME280;35336;48.400;10.886;2023-05-23T01:17:10;95986.16;;;16.56;74.42
49451;BME280;35336;48.400;10.886;2023-05-23T01:18:07;95990.97;;;16.54;74.50
49451;BME280;35336;48.400;10.886;2023-05-23T01:18:39;95986.31;;;16.49;74.36
49451;BME280;35336;48.400;10.886;2023-05-23T01:19:24;95990.72;;;16.55;74.41
49451;BME280;35336;48.400;10.886;2023-05-23T01:20:10;95992.59;;;16.55;74.26
49451;BME280;35336;48.400;10.886;2023-05-23T01:20:36;95976.06;;;16.34;74.33
49451;BME280;35336;48.400;10.886;2023-05-23T01:20:59;95977.81;;;16.40;74.28
49451;BME280;35336;48.400;10.886;2023-05-23T01:21:16;96000.56;;;16.49;74.54
49451;BME280;35336;48.400;10.886;2023-05-23T01:21:32;95976.19;;;16.39;74.76
49451;BME280;35336;48.400;10.886;2023-05-23T01:21:52;95968.97;;;16.28;74.91
49451;BME280;35336;48.400;10.886;2023-05-23T01:22:21;95998.25;;;16.41;75.10
49451;BME280;35336;48.400;10.886;2023-05-23T01:24:02;95995.50;;;16.36;75.55
49451;BME280;35336;48.400;10.886;2023-05-23T01:24:35;95996.88;;;16.39;75.28
49451;BME280;35336;48.400;10.886;2023-05-23T01:25:22;95996.53;;;16.35;75.65
49451;BME280;35336;48.400;10.886;2023-05-23T01:27:54;95987.41;;;16.36;75.36
49451;BME280;35336;48.400;10.886;2023-05-23T01:28:12;96000.94;;;16.41;75.21
49451;BME280;35336;48.400;10.886;2023-05-23T01:28:33;95974.34;;;16.28;75.63
49451;BME280;35336;48.400;10.886;2023-05-23T01:28:54;95991.50;;;16.39;75.42
49451;BME280;35336;48.400;10.886;2023-05-23T01:29:13;95993.13;;;16.40;75.45
49451;BME280;35336;48.400;10.886;2023-05-23T01:29:35;95995.81;;;16.40;75.66
49451;BME280;35336;48.400;10.886;2023-05-23T01:29:55;95980.91;;;16.32;75.59
49451;BME280;35336;48.400;10.886;2023-05-23T01:30:12;95978.94;;;16.27;75.66
49451;BME280;35336;48.400;10.886;2023-05-23T01:30:31;95990.69;;;16.38;75.78
49451;BME280;35336;48.400;10.886;2023-05-23T01:30:47;95989.53;;;16.34;75.79
49451;BME280;35336;48.400;10.886;2023-05-23T01:31:07;95997.13;;;16.37;75.73
49451;BME280;35336;48.400;10.886;2023-05-23T01:31:26;95989.06;;;16.37;75.68
49451;BME280;35336;48.400;10.886;2023-05-23T01:31:45;95985.22;;;16.33;75.52
49451;BME280;35336;48.400;10.886;2023-05-23T01:32:06;95983.00;;;16.30;75.81
49451;BME280;35336;48.400;10.886;2023-05-23T01:32:24;95969.47;;;16.25;76.06
49451;BME280;35336;48.400;10.886;2023-05-23T01:32:42;95996.66;;;16.40;75.94
49451;BME280;35336;48.400;10.886;2023-05-23T01:32:58;95990.44;;;16.40;76.14
49451;BME280;35336;48.400;10.886;2023-05-23T01:33:15;95994.44;;;16.37;76.02
49451;BME280;35336;48.400;10.886;2023-05-23T01:33:31;95993.97;;;16.40;75.90
49451;BME280;35336;48.400;10.886;2023-05-23T01:33:47;95984.66;;;16.31;76.01
49451;BME280;35336;48.400;10.886;2023-05-23T01:34:03;95989.31;;;16.35;75.94